This is the latest recevied weather packets stored in our database for station/object WMKA. If no packets are shown the sender has not sent any weather packets the latest 10 day(s).
| Time | Temp. | Humidity | Pressure | Rain* | Wind** | Luminosity | Snow |
|---|---|---|---|---|---|---|---|
| 1777561791 | 26.67° C | 94% | 1010 hPa | - | - | - | - |
| 1777554594 | 26.67° C | 88% | 1009 hPa | - | - | - | - |
| 1777550988 | 26.67° C | 88% | 1007 hPa | - | - | - | - |
| 1777543788 | 33.89° C | 63% | 1006 hPa | - | - | - | - |
| 1777540194 | 33.89° C | 63% | 1006 hPa | - | - | - | - |
| 1777532988 | 35.56° C | 59% | 1007 hPa | - | - | - | - |
| 1777529387 | 35.56° C | 50% | 1008 hPa | - | - | - | - |
| 1777525793 | 35° C | 53% | 1009 hPa | - | - | - | - |
| 1777522187 | 33.89° C | 56% | 1010 hPa | - | - | - | - |
| 1777518587 | 31.67° C | 66% | 1010 hPa | - | - | - | - |
| 1777514987 | 30.56° C | 70% | 1010 hPa | - | - | - | - |
| 1777511387 | 28.89° C | 74% | 1009 hPa | - | - | - | - |
| 1777496990 | 25° C | 88% | 1008 hPa | - | - | - | - |
| 1777468186 | 25.56° C | 83% | 1009 hPa | - | - | - | - |
| 1777464586 | 26.67° C | 83% | 1008 hPa | - | - | - | - |
| 1777460985 | 27.78° C | 74% | 1006 hPa | - | - | - | - |
| 1777457393 | 30.56° C | 62% | 1006 hPa | - | - | - | - |
| 1777453785 | 32.78° C | 70% | 1005 hPa | - | - | - | - |
| 1777450185 | 35° C | 63% | 1006 hPa | - | - | - | - |
| 1777446585 | 35° C | 59% | 1007 hPa | - | - | - | - |
| 1777442991 | 35° C | 63% | 1008 hPa | - | - | - | - |
| 1777439385 | 32.78° C | 66% | 1009 hPa | - | - | - | - |
| 1777435785 | 32.78° C | 66% | 1010 hPa | - | - | - | - |
* Rain since midnight (hover to see other rain measurements)
** Current wind speed in m/s (hover to see current wind gust speed)